Time;durP1;ratioP1;P1;durP2;ratioP2;P2;SDS_P1;SDS_P2;PMS_P1;PMS_P2;Temp;Humidity;BMP_temperature;BMP_pressure;BME280_temperature;BME280_humidity;BME280_pressure;Samples;Min_cycle;Max_cycle;Signal;HPM_P1;HPM_P2
2022/03/17 00:01:01;;;;;;;34.80;15.70;;;;;;;;;;5013377;28;20029;-69
2022/03/17 00:03:26;;;;;;;22.02;10.90;;;;;;;;;;5027989;28;20351;-68
2022/03/17 00:05:51;;;;;;;28.08;15.55;;;;;;;;;;5029685;28;20216;-69
2022/03/17 00:08:17;;;;;;;31.80;17.77;;;;;;;;;;5024155;28;20037;-68
2022/03/17 00:10:42;;;;;;;22.57;10.57;;;;;;;;;;5030319;28;20295;-68
2022/03/17 00:13:07;;;;;;;23.13;13.52;;;;;;;;;;5029494;28;20260;-68
2022/03/17 00:15:33;;;;;;;25.05;14.63;;;;;;;;;;5028907;28;20108;-68
2022/03/17 00:17:58;;;;;;;16.93;9.53;;;;;;;;;;5028559;28;20021;-68
2022/03/17 00:20:23;;;;;;;23.48;14.32;;;;;;;;;;5022041;28;20918;-67
2022/03/17 00:22:49;;;;;;;24.55;11.98;;;;;;;;;;5030296;28;20021;-68
2022/03/17 00:25:14;;;;;;;19.23;9.75;;;;;;;;;;5029190;28;20096;-68
2022/03/17 00:27:39;;;;;;;22.55;10.68;;;;;;;;;;5027379;28;20022;-68
2022/03/17 00:30:05;;;;;;;32.85;14.90;;;;;;;;;;5028121;28;20382;-68
2022/03/17 00:32:30;;;;;;;30.45;13.50;;;;;;;;;;5029357;28;20468;-67
2022/03/17 00:37:39;;;;;;;29.15;13.82;;;;;;;;;;5028690;28;20315;-69
2022/03/17 00:40:05;;;;;;;27.80;13.45;;;;;;;;;;5024206;28;20049;-67
2022/03/17 00:42:30;;;;;;;32.92;15.18;;;;;;;;;;5022983;28;20021;-68
2022/03/17 00:44:55;;;;;;;27.65;13.27;;;;;;;;;;5026590;28;20023;-68
2022/03/17 00:47:21;;;;;;;31.27;14.83;;;;;;;;;;5030282;28;20028;-68
2022/03/17 00:49:47;;;;;;;33.92;16.30;;;;;;;;;;5026038;28;20273;-67
2022/03/17 00:52:14;;;;;;;33.40;16.08;;;;;;;;;;5028617;28;20024;-68
2022/03/17 00:54:41;;;;;;;29.52;13.93;;;;;;;;;;5025236;28;20028;-68
2022/03/17 00:57:06;;;;;;;38.63;12.48;;;;;;;;;;5025730;28;20022;-67
2022/03/17 00:59:32;;;;;;;21.90;9.95;;;;;;;;;;5028395;28;20036;-69
2022/03/17 01:01:57;;;;;;;28.95;14.70;;;;;;;;;;5140555;22;20040;-68
2022/03/17 01:04:22;;;;;;;26.45;13.93;;;;;;;;;;5059726;28;20059;-68
2022/03/17 01:06:48;;;;;;;24.30;12.20;;;;;;;;;;5068499;28;20422;-68
2022/03/17 01:09:13;;;;;;;18.40;9.43;;;;;;;;;;5067975;28;20024;-68
2022/03/17 01:11:38;;;;;;;27.23;13.82;;;;;;;;;;5059821;28;20271;-71
2022/03/17 01:14:03;;;;;;;36.30;18.70;;;;;;;;;;5048909;28;20017;-68
2022/03/17 01:16:28;;;;;;;23.83;11.47;;;;;;;;;;5033236;28;20682;-68
2022/03/17 01:18:54;;;;;;;17.60;8.93;;;;;;;;;;5046567;28;20410;-68
2022/03/17 01:21:19;;;;;;;23.65;11.82;;;;;;;;;;5046773;28;20274;-68
2022/03/17 01:23:44;;;;;;;19.77;9.95;;;;;;;;;;5043431;28;21534;-71
2022/03/17 01:26:09;;;;;;;33.40;17.88;;;;;;;;;;5048829;28;20021;-68
2022/03/17 01:28:34;;;;;;;19.90;10.20;;;;;;;;;;5044504;28;20037;-68
2022/03/17 01:31:00;;;;;;;28.63;14.38;;;;;;;;;;5045043;28;20108;-68
2022/03/17 01:33:25;;;;;;;23.75;12.18;;;;;;;;;;5047787;28;20029;-68
2022/03/17 01:35:50;;;;;;;31.63;15.60;;;;;;;;;;5050030;28;20017;-68
2022/03/17 01:38:15;;;;;;;35.08;19.27;;;;;;;;;;5051934;28;20333;-71
2022/03/17 01:40:40;;;;;;;25.25;14.55;;;;;;;;;;5049263;28;20025;-71
2022/03/17 01:43:06;;;;;;;24.02;11.65;;;;;;;;;;5052488;28;20147;-69
2022/03/17 01:45:31;;;;;;;35.78;17.50;;;;;;;;;;5048640;28;20028;-69
2022/03/17 01:47:57;;;;;;;37.03;18.52;;;;;;;;;;5047357;28;20446;-69
2022/03/17 01:50:22;;;;;;;33.67;16.27;;;;;;;;;;5052101;28;20017;-70
2022/03/17 01:52:47;;;;;;;25.67;14.63;;;;;;;;;;5050781;28;20031;-70
2022/03/17 01:55:14;;;;;;;37.42;18.90;;;;;;;;;;5049410;28;20480;-70
2022/03/17 01:57:39;;;;;;;38.40;17.80;;;;;;;;;;5051605;28;20079;-70
2022/03/17 02:00:06;;;;;;;30.48;16.48;;;;;;;;;;5052741;28;20013;-69
2022/03/17 02:02:31;;;;;;;23.88;11.43;;;;;;;;;;5051691;28;20021;-69
2022/03/17 02:04:56;;;;;;;31.30;17.27;;;;;;;;;;5048751;28;20397;-69
2022/03/17 02:07:23;;;;;;;26.07;13.10;;;;;;;;;;5050898;28;20354;-69
2022/03/17 02:09:49;;;;;;;30.15;14.48;;;;;;;;;;5052869;28;20285;-69
2022/03/17 02:15:04;;;;;;;36.53;19.27;;;;;;;;;;5052911;28;20104;-70
2022/03/17 02:17:33;;;;;;;32.90;16.02;;;;;;;;;;5051091;28;20021;-70
2022/03/17 02:19:59;;;;;;;18.35;8.77;;;;;;;;;;5051464;28;20021;-69
2022/03/17 02:22:24;;;;;;;31.88;15.32;;;;;;;;;;5033531;28;20058;-69
2022/03/17 02:27:47;;;;;;;31.15;16.48;;;;;;;;;;5050231;28;20032;-69
2022/03/17 02:30:14;;;;;;;29.83;14.18;;;;;;;;;;5036812;28;20432;-69
2022/03/17 02:32:40;;;;;;;36.08;17.17;;;;;;;;;;5045933;28;20119;-69
2022/03/17 02:35:06;;;;;;;28.67;14.38;;;;;;;;;;5051488;28;20103;-70
2022/03/17 02:37:32;;;;;;;30.10;17.08;;;;;;;;;;5046848;28;20090;-70
2022/03/17 02:39:57;;;;;;;29.33;15.57;;;;;;;;;;5051297;28;20095;-70
2022/03/17 02:42:23;;;;;;;35.78;16.15;;;;;;;;;;5046635;28;20017;-70
2022/03/17 02:44:48;;;;;;;19.42;10.65;;;;;;;;;;5050591;28;20017;-70
2022/03/17 02:47:14;;;;;;;42.72;21.45;;;;;;;;;;5049589;28;20067;-69
2022/03/17 02:49:39;;;;;;;30.05;14.40;;;;;;;;;;5047777;28;20496;-69
2022/03/17 02:52:05;;;;;;;23.77;11.57;;;;;;;;;;5050773;28;20465;-72
2022/03/17 02:54:31;;;;;;;28.40;16.20;;;;;;;;;;5048405;28;20354;-69
2022/03/17 02:56:56;;;;;;;24.60;10.73;;;;;;;;;;5050670;28;20440;-69
2022/03/17 02:59:21;;;;;;;22.38;11.65;;;;;;;;;;5050809;28;20291;-69
2022/03/17 03:01:46;;;;;;;28.63;12.07;;;;;;;;;;5049433;28;20029;-70
2022/03/17 03:04:16;;;;;;;34.17;15.00;;;;;;;;;;5050219;28;20271;-71
2022/03/17 03:06:41;;;;;;;18.27;9.30;;;;;;;;;;5050216;28;20366;-70
2022/03/17 03:09:07;;;;;;;28.45;13.02;;;;;;;;;;5041860;28;20111;-70
2022/03/17 03:11:32;;;;;;;25.20;12.60;;;;;;;;;;5046517;28;20505;-70
2022/03/17 03:13:57;;;;;;;26.80;13.15;;;;;;;;;;5047937;28;20287;-70
2022/03/17 03:16:22;;;;;;;31.05;15.73;;;;;;;;;;5047053;28;20024;-70
2022/03/17 03:18:47;;;;;;;25.13;13.70;;;;;;;;;;5046809;28;20013;-70
2022/03/17 03:21:13;;;;;;;36.40;20.38;;;;;;;;;;5050076;28;20032;-70
2022/03/17 03:23:38;;;;;;;37.80;14.60;;;;;;;;;;5048836;28;20017;-70
2022/03/17 03:26:03;;;;;;;29.42;15.40;;;;;;;;;;5049965;28;20739;-70
2022/03/17 03:28:28;;;;;;;23.87;11.60;;;;;;;;;;5033649;28;20044;-70
2022/03/17 03:30:54;;;;;;;16.50;9.10;;;;;;;;;;5043529;28;20301;-70
2022/03/17 03:33:19;;;;;;;26.45;13.85;;;;;;;;;;5046175;28;20389;-70
2022/03/17 03:38:29;;;;;;;33.13;17.15;;;;;;;;;;5041342;28;20036;-70
2022/03/17 03:40:54;;;;;;;41.40;17.93;;;;;;;;;;5049524;28;20368;-70
2022/03/17 03:43:19;;;;;;;30.95;15.95;;;;;;;;;;5046849;28;20306;-70
2022/03/17 03:45:44;;;;;;;28.63;13.63;;;;;;;;;;5023974;28;20032;-70
2022/03/17 03:48:10;;;;;;;35.42;13.80;;;;;;;;;;5014868;28;20041;-70
2022/03/17 03:50:37;;;;;;;35.90;17.88;;;;;;;;;;5044291;28;20052;-70
2022/03/17 03:53:03;;;;;;;31.83;15.55;;;;;;;;;;5043060;28;20048;-70
2022/03/17 03:55:28;;;;;;;42.10;20.48;;;;;;;;;;5048975;28;20025;-70
2022/03/17 03:57:54;;;;;;;24.52;12.02;;;;;;;;;;5044194;28;20053;-70
2022/03/17 04:02:55;;;;;;;46.08;24.48;;;;;;;;;;5049261;28;20064;-70
2022/03/17 04:05:25;;;;;;;43.85;23.42;;;;;;;;;;5046920;28;20107;-70
2022/03/17 04:07:51;;;;;;;36.35;17.80;;;;;;;;;;5049395;28;20112;-70
2022/03/17 04:10:16;;;;;;;40.50;21.15;;;;;;;;;;5050143;28;20033;-69
2022/03/17 04:12:41;;;;;;;36.13;18.83;;;;;;;;;;5043835;28;20033;-70
2022/03/17 04:15:06;;;;;;;43.30;21.07;;;;;;;;;;5041086;28;20031;-70
2022/03/17 04:17:32;;;;;;;27.60;14.07;;;;;;;;;;5046805;28;20802;-70
2022/03/17 04:19:57;;;;;;;29.70;13.70;;;;;;;;;;5044130;28;20078;-69
2022/03/17 04:22:23;;;;;;;40.77;23.20;;;;;;;;;;5044032;28;20457;-69
2022/03/17 04:24:48;;;;;;;27.35;13.45;;;;;;;;;;5044107;28;20267;-70
2022/03/17 04:27:14;;;;;;;30.10;11.43;;;;;;;;;;5041791;28;21364;-70
2022/03/17 04:29:40;;;;;;;28.67;14.43;;;;;;;;;;5044578;28;20421;-70
2022/03/17 04:32:05;;;;;;;43.53;24.25;;;;;;;;;;5041410;28;20017;-70
2022/03/17 04:34:31;;;;;;;30.13;13.80;;;;;;;;;;5029244;28;20060;-70
2022/03/17 04:36:56;;;;;;;34.00;17.10;;;;;;;;;;5045486;28;20021;-70
2022/03/17 04:39:21;;;;;;;42.83;24.00;;;;;;;;;;5042951;28;20344;-70
2022/03/17 04:41:46;;;;;;;37.72;17.67;;;;;;;;;;5047302;28;20283;-70
2022/03/17 04:44:13;;;;;;;44.45;25.40;;;;;;;;;;5046143;28;20389;-70
2022/03/17 04:46:38;;;;;;;49.45;24.70;;;;;;;;;;5032341;28;20021;-70
2022/03/17 04:49:04;;;;;;;37.17;15.90;;;;;;;;;;5041285;28;20021;-70
2022/03/17 04:51:29;;;;;;;27.17;11.02;;;;;;;;;;5044120;28;20396;-70
2022/03/17 04:53:55;;;;;;;34.35;16.70;;;;;;;;;;5043196;28;20064;-70
2022/03/17 04:56:20;;;;;;;33.53;14.85;;;;;;;;;;5046926;28;20035;-70
2022/03/17 04:58:45;;;;;;;42.53;21.95;;;;;;;;;;5048795;28;20423;-70
2022/03/17 05:01:15;;;;;;;45.78;25.48;;;;;;;;;;5042782;28;20031;-70
2022/03/17 05:03:41;;;;;;;42.90;19.03;;;;;;;;;;5048311;28;20040;-70
2022/03/17 05:06:06;;;;;;;41.10;21.05;;;;;;;;;;5044736;28;20385;-71
2022/03/17 05:08:35;;;;;;;51.17;22.80;;;;;;;;;;5048421;28;20029;-70
2022/03/17 05:11:00;;;;;;;49.80;26.40;;;;;;;;;;5049419;28;20017;-70
2022/03/17 05:13:26;;;;;;;51.67;26.70;;;;;;;;;;5051970;28;20756;-70
2022/03/17 05:15:51;;;;;;;64.82;30.75;;;;;;;;;;5047276;28;20446;-70
2022/03/17 05:18:17;;;;;;;54.28;29.08;;;;;;;;;;5049112;28;20036;-70
2022/03/17 05:20:43;;;;;;;58.08;29.65;;;;;;;;;;5052267;28;20021;-69
2022/03/17 05:23:10;;;;;;;52.90;27.90;;;;;;;;;;5049851;28;20095;-69
2022/03/17 05:25:36;;;;;;;55.80;32.00;;;;;;;;;;5033979;28;20070;-69
2022/03/17 05:28:01;;;;;;;58.78;31.75;;;;;;;;;;5047235;28;20073;-71
2022/03/17 05:30:28;;;;;;;67.70;32.13;;;;;;;;;;5047926;28;20022;-69
2022/03/17 05:32:53;;;;;;;59.33;31.02;;;;;;;;;;5052355;28;20052;-69
2022/03/17 05:35:19;;;;;;;58.17;30.42;;;;;;;;;;5048733;28;20075;-69
2022/03/17 05:37:44;;;;;;;64.20;31.25;;;;;;;;;;5051053;28;20053;-69
2022/03/17 05:40:14;;;;;;;60.92;33.80;;;;;;;;;;5047963;28;20013;-70
2022/03/17 05:42:40;;;;;;;64.53;32.13;;;;;;;;;;5048967;28;20300;-69
2022/03/17 05:45:06;;;;;;;64.38;29.95;;;;;;;;;;5048122;28;20021;-69
2022/03/17 05:47:37;;;;;;;67.72;32.30;;;;;;;;;;5051348;28;20064;-68
2022/03/17 05:50:04;;;;;;;69.53;34.92;;;;;;;;;;5046732;28;20068;-69
2022/03/17 05:52:30;;;;;;;68.85;35.28;;;;;;;;;;5050562;28;20026;-68
2022/03/17 05:54:55;;;;;;;60.90;32.47;;;;;;;;;;5047260;28;20027;-69
2022/03/17 05:57:20;;;;;;;70.70;37.17;;;;;;;;;;5043942;28;20029;-69
2022/03/17 05:59:45;;;;;;;69.40;35.00;;;;;;;;;;5051886;28;20020;-70
2022/03/17 06:02:11;;;;;;;85.07;39.50;;;;;;;;;;5051242;28;20278;-67
2022/03/17 06:04:38;;;;;;;65.55;36.10;;;;;;;;;;5050424;28;20025;-68
2022/03/17 06:07:04;;;;;;;71.13;33.50;;;;;;;;;;5050115;28;20030;-68
2022/03/17 06:09:29;;;;;;;75.50;39.15;;;;;;;;;;5049100;28;20559;-68
2022/03/17 06:11:57;;;;;;;78.07;40.90;;;;;;;;;;5038370;28;20029;-68
2022/03/17 06:14:26;;;;;;;76.85;40.38;;;;;;;;;;5050138;28;20028;-68
2022/03/17 06:16:52;;;;;;;79.03;41.72;;;;;;;;;;5042591;28;20116;-67
2022/03/17 06:19:17;;;;;;;78.38;39.97;;;;;;;;;;5043850;28;21702;-67
2022/03/17 06:21:43;;;;;;;81.70;40.33;;;;;;;;;;5044343;28;20052;-68
2022/03/17 06:24:08;;;;;;;76.80;40.65;;;;;;;;;;5049702;28;20115;-68
2022/03/17 06:26:33;;;;;;;83.73;41.70;;;;;;;;;;5048608;28;20029;-68
2022/03/17 06:28:58;;;;;;;72.80;37.40;;;;;;;;;;5047368;28;20345;-68
2022/03/17 06:31:23;;;;;;;84.72;37.33;;;;;;;;;;5038204;28;20276;-68
2022/03/17 06:33:49;;;;;;;68.07;37.30;;;;;;;;;;5049956;28;20025;-68
2022/03/17 06:36:14;;;;;;;58.97;28.23;;;;;;;;;;5048987;28;20082;-68
2022/03/17 06:38:39;;;;;;;60.57;35.33;;;;;;;;;;5032347;28;20314;-68
2022/03/17 06:41:04;;;;;;;55.57;28.20;;;;;;;;;;5049706;28;20267;-67
2022/03/17 06:43:30;;;;;;;60.05;32.97;;;;;;;;;;5049723;28;20715;-67
2022/03/17 06:45:55;;;;;;;73.25;35.80;;;;;;;;;;5047444;28;20025;-68
2022/03/17 06:48:20;;;;;;;70.87;33.70;;;;;;;;;;5049569;28;20053;-67
2022/03/17 06:50:45;;;;;;;61.92;30.80;;;;;;;;;;5046132;28;20598;-67
2022/03/17 06:53:10;;;;;;;65.07;34.05;;;;;;;;;;5046067;28;20024;-68
2022/03/17 06:55:36;;;;;;;71.85;45.33;;;;;;;;;;5047620;28;20029;-68
2022/03/17 06:58:01;;;;;;;76.95;42.05;;;;;;;;;;5048838;28;20430;-68
2022/03/17 07:00:27;;;;;;;78.88;40.05;;;;;;;;;;5045868;28;20055;-68
2022/03/17 07:02:52;;;;;;;81.88;37.63;;;;;;;;;;5045684;28;20017;-68
2022/03/17 07:05:17;;;;;;;82.60;49.88;;;;;;;;;;5040358;28;20033;-68
2022/03/17 07:07:43;;;;;;;73.53;35.90;;;;;;;;;;5044730;28;20071;-68
2022/03/17 07:10:08;;;;;;;67.55;34.42;;;;;;;;;;5047716;28;20154;-68
2022/03/17 07:12:34;;;;;;;76.47;42.03;;;;;;;;;;5051359;28;20059;-67
2022/03/17 07:14:59;;;;;;;67.90;36.35;;;;;;;;;;5050497;28;20017;-67
2022/03/17 07:17:26;;;;;;;69.60;35.90;;;;;;;;;;5046275;28;20048;-67
2022/03/17 07:22:25;;;;;;;63.13;28.25;;;;;;;;;;5043485;28;20028;-67
2022/03/17 07:24:50;;;;;;;59.45;31.17;;;;;;;;;;5041971;28;20104;-68
2022/03/17 07:27:15;;;;;;;56.90;24.88;;;;;;;;;;5049872;28;20536;-67
2022/03/17 07:29:41;;;;;;;54.35;29.10;;;;;;;;;;5044152;28;20119;-68
2022/03/17 07:32:06;;;;;;;53.38;27.20;;;;;;;;;;5049919;28;20039;-67
2022/03/17 07:34:31;;;;;;;49.13;25.98;;;;;;;;;;5042879;28;20029;-68
2022/03/17 07:36:56;;;;;;;51.60;23.80;;;;;;;;;;5043176;28;20012;-68
2022/03/17 07:39:21;;;;;;;44.27;21.43;;;;;;;;;;5049932;28;20275;-67
2022/03/17 07:41:47;;;;;;;52.10;23.20;;;;;;;;;;5045483;28;20272;-67
2022/03/17 07:44:13;;;;;;;47.60;22.67;;;;;;;;;;5042265;28;20150;-68
2022/03/17 07:46:39;;;;;;;47.00;22.98;;;;;;;;;;5045801;28;20029;-67
2022/03/17 07:49:04;;;;;;;45.90;21.53;;;;;;;;;;5045989;28;20021;-67
2022/03/17 07:51:30;;;;;;;44.30;19.85;;;;;;;;;;5046032;28;20382;-68
2022/03/17 07:53:55;;;;;;;39.20;18.33;;;;;;;;;;5044644;28;20479;-68
2022/03/17 07:56:20;;;;;;;39.00;18.53;;;;;;;;;;5049108;28;20031;-68
2022/03/17 07:58:46;;;;;;;38.25;19.02;;;;;;;;;;5048455;28;20790;-69
2022/03/17 08:01:11;;;;;;;31.73;17.98;;;;;;;;;;5044424;28;20025;-68
2022/03/17 08:03:38;;;;;;;32.85;15.73;;;;;;;;;;5046432;28;20041;-68
2022/03/17 08:06:04;;;;;;;23.88;13.73;;;;;;;;;;5030241;28;20024;-68
2022/03/17 08:08:29;;;;;;;26.60;16.08;;;;;;;;;;5046704;28;20044;-68
2022/03/17 08:10:54;;;;;;;29.10;19.63;;;;;;;;;;5046286;28;20021;-68
2022/03/17 08:13:21;;;;;;;24.23;13.25;;;;;;;;;;5045112;28;20401;-68
2022/03/17 08:15:46;;;;;;;37.67;15.65;;;;;;;;;;5048501;28;20301;-68
2022/03/17 08:18:12;;;;;;;28.20;15.18;;;;;;;;;;5044245;28;20028;-68
2022/03/17 08:20:38;;;;;;;30.48;17.77;;;;;;;;;;5046452;28;20025;-68
2022/03/17 08:23:03;;;;;;;30.67;16.42;;;;;;;;;;5049678;28;20392;-68
2022/03/17 08:25:28;;;;;;;30.85;15.25;;;;;;;;;;5047956;28;20017;-68
2022/03/17 08:27:55;;;;;;;28.92;17.23;;;;;;;;;;5048621;28;20025;-67
2022/03/17 08:30:20;;;;;;;37.33;16.98;;;;;;;;;;5026906;28;20036;-67
2022/03/17 08:32:46;;;;;;;45.72;17.67;;;;;;;;;;5044893;28;20025;-68
2022/03/17 08:35:13;;;;;;;38.75;17.77;;;;;;;;;;5048734;28;20112;-68
2022/03/17 08:37:42;;;;;;;31.73;16.30;;;;;;;;;;5045851;28;20116;-68
2022/03/17 08:40:07;;;;;;;38.53;16.02;;;;;;;;;;5041798;28;20017;-68
2022/03/17 08:42:32;;;;;;;28.90;14.50;;;;;;;;;;5044535;28;20469;-69
2022/03/17 08:44:58;;;;;;;33.30;13.50;;;;;;;;;;5046290;28;20029;-67
2022/03/17 08:50:07;;;;;;;23.90;12.15;;;;;;;;;;5044946;28;20031;-68
2022/03/17 08:52:32;;;;;;;28.77;10.98;;;;;;;;;;5044544;28;20166;-67
2022/03/17 08:54:58;;;;;;;30.23;9.63;;;;;;;;;;5044507;28;20020;-67
2022/03/17 08:57:23;;;;;;;27.52;12.77;;;;;;;;;;5046401;28;20097;-69
2022/03/17 08:59:48;;;;;;;25.13;9.82;;;;;;;;;;5048038;28;20107;-68
2022/03/17 09:02:14;;;;;;;26.48;10.07;;;;;;;;;;5047795;28;20048;-68
2022/03/17 09:04:39;;;;;;;17.60;7.82;;;;;;;;;;5045980;28;20021;-68
2022/03/17 09:07:04;;;;;;;15.25;6.63;;;;;;;;;;5049811;28;20025;-69
2022/03/17 09:09:32;;;;;;;19.25;5.82;;;;;;;;;;5045450;28;20029;-69
2022/03/17 09:11:57;;;;;;;18.30;5.53;;;;;;;;;;5049002;28;20109;-67
2022/03/17 09:14:22;;;;;;;12.77;5.32;;;;;;;;;;5048503;28;20252;-67
2022/03/17 09:16:48;;;;;;;15.45;5.25;;;;;;;;;;5050164;28;20437;-68
2022/03/17 09:19:14;;;;;;;16.52;4.82;;;;;;;;;;5049010;28;20483;-67
2022/03/17 09:21:39;;;;;;;12.77;4.65;;;;;;;;;;5050123;28;20117;-68
2022/03/17 09:24:04;;;;;;;12.82;4.68;;;;;;;;;;5049484;28;20044;-67
2022/03/17 09:26:31;;;;;;;13.85;4.40;;;;;;;;;;5050715;28;20048;-68
2022/03/17 09:28:56;;;;;;;10.88;4.03;;;;;;;;;;5046322;28;20034;-69
2022/03/17 09:31:22;;;;;;;14.68;3.92;;;;;;;;;;5050836;28;20036;-67
2022/03/17 09:33:47;;;;;;;12.05;3.63;;;;;;;;;;5049435;28;20025;-67
2022/03/17 09:36:13;;;;;;;11.15;2.80;;;;;;;;;;5049169;28;20017;-67
2022/03/17 09:38:38;;;;;;;7.82;2.50;;;;;;;;;;5046541;28;20514;-68
2022/03/17 09:41:23;;;;;;;7.95;2.47;;;;;;;;;;5049274;28;20477;-68
2022/03/17 09:43:48;;;;;;;9.10;3.38;;;;;;;;;;5046875;28;20531;-68
2022/03/17 09:46:15;;;;;;;6.43;2.08;;;;;;;;;;5046014;28;20021;-68
2022/03/17 09:48:41;;;;;;;10.23;3.15;;;;;;;;;;5031235;28;20473;-68
2022/03/17 09:51:06;;;;;;;8.80;2.58;;;;;;;;;;5049197;28;20636;-68
2022/03/17 09:53:31;;;;;;;6.97;1.93;;;;;;;;;;5045697;28;20142;-68
2022/03/17 09:55:57;;;;;;;10.95;2.40;;;;;;;;;;5048935;28;20274;-68
2022/03/17 09:58:22;;;;;;;4.25;1.90;;;;;;;;;;5052441;28;20068;-68
2022/03/17 10:00:53;;;;;;;4.80;1.70;;;;;;;;;;5053196;28;20017;-69
2022/03/17 10:03:26;;;;;;;5.68;1.80;;;;;;;;;;5043111;28;20032;-68
2022/03/17 10:05:53;;;;;;;8.25;2.10;;;;;;;;;;5054841;28;20024;-68
2022/03/17 10:08:20;;;;;;;15.13;3.60;;;;;;;;;;5052517;28;20037;-71
2022/03/17 10:10:45;;;;;;;15.23;3.22;;;;;;;;;;5050555;28;20025;-68
2022/03/17 10:13:18;;;;;;;6.68;2.40;;;;;;;;;;5053037;28;20500;-67
2022/03/17 10:15:47;;;;;;;5.93;2.00;;;;;;;;;;5051590;28;20024;-68
2022/03/17 10:18:20;;;;;;;11.40;2.28;;;;;;;;;;5052405;28;20043;-68
2022/03/17 10:20:46;;;;;;;8.45;2.33;;;;;;;;;;5048814;28;20033;-67
2022/03/17 10:23:11;;;;;;;6.57;2.22;;;;;;;;;;5046834;28;20503;-68
2022/03/17 10:25:37;;;;;;;11.73;2.63;;;;;;;;;;5048508;28;20021;-69
2022/03/17 10:28:03;;;;;;;14.60;2.50;;;;;;;;;;5044813;28;20021;-68
2022/03/17 10:30:33;;;;;;;9.57;2.17;;;;;;;;;;5039976;28;20025;-68
2022/03/17 10:33:11;;;;;;;4.75;1.70;;;;;;;;;;5042701;28;20099;-69
2022/03/17 10:35:38;;;;;;;11.55;1.90;;;;;;;;;;5049333;28;20119;-69
2022/03/17 10:38:13;;;;;;;8.40;2.00;;;;;;;;;;5052388;28;20378;-68
2022/03/17 10:40:40;;;;;;;7.32;1.60;;;;;;;;;;5052060;28;20091;-68
2022/03/17 10:43:19;;;;;;;7.55;1.27;;;;;;;;;;5051971;28;20377;-68
2022/03/17 10:45:45;;;;;;;4.78;1.60;;;;;;;;;;5034586;28;20501;-68
2022/03/17 10:48:10;;;;;;;4.95;1.40;;;;;;;;;;5052405;28;20221;-68
2022/03/17 10:50:43;;;;;;;8.48;1.48;;;;;;;;;;5052042;28;20025;-67
2022/03/17 10:53:08;;;;;;;11.48;2.00;;;;;;;;;;5052641;28;20380;-67
2022/03/17 10:55:34;;;;;;;9.43;2.20;;;;;;;;;;5052104;28;20105;-68
2022/03/17 10:58:16;;;;;;;4.40;1.90;;;;;;;;;;5052658;28;20432;-68
2022/03/17 11:00:48;;;;;;;9.85;2.15;;;;;;;;;;5052261;28;20413;-69
2022/03/17 11:03:14;;;;;;;8.52;1.60;;;;;;;;;;5052724;28;20029;-71
2022/03/17 11:05:39;;;;;;;7.93;1.98;;;;;;;;;;5052196;28;20079;-68
2022/03/17 11:08:05;;;;;;;11.77;2.00;;;;;;;;;;5051355;28;20025;-68
2022/03/17 11:10:30;;;;;;;8.98;1.52;;;;;;;;;;5051386;28;20766;-68
2022/03/17 11:12:55;;;;;;;10.40;2.08;;;;;;;;;;5051840;28;20025;-68
2022/03/17 11:15:24;;;;;;;9.15;1.30;;;;;;;;;;5051846;28;20028;-67
2022/03/17 11:17:50;;;;;;;7.68;2.38;;;;;;;;;;5052238;28;20485;-68
2022/03/17 11:20:22;;;;;;;12.25;1.58;;;;;;;;;;5051494;28;20036;-68
2022/03/17 11:23:06;;;;;;;5.97;1.52;;;;;;;;;;5051759;28;20021;-68
2022/03/17 11:25:34;;;;;;;8.65;1.40;;;;;;;;;;5051628;28;20029;-68
2022/03/17 11:28:00;;;;;;;8.00;1.95;;;;;;;;;;5033705;28;20074;-68
2022/03/17 11:30:41;;;;;;;8.63;1.92;;;;;;;;;;5051399;28;20021;-68
2022/03/17 11:33:20;;;;;;;13.00;2.22;;;;;;;;;;5051648;28;20051;-67
2022/03/17 11:35:51;;;;;;;11.40;2.33;;;;;;;;;;5051795;28;20025;-68
2022/03/17 11:38:18;;;;;;;13.23;2.35;;;;;;;;;;5051574;28;20029;-68
2022/03/17 11:41:18;;;;;;;18.92;2.00;;;;;;;;;;5051382;28;20027;-68
2022/03/17 11:43:46;;;;;;;10.57;2.28;;;;;;;;;;4970529;28;20038;-68
2022/03/17 11:46:16;;;;;;;10.85;2.00;;;;;;;;;;5035844;28;20028;-68
2022/03/17 11:48:42;;;;;;;4.05;1.60;;;;;;;;;;5051639;28;20497;-69
2022/03/17 11:51:09;;;;;;;14.13;2.83;;;;;;;;;;5051085;28;20064;-68
2022/03/17 11:53:39;;;;;;;12.75;2.15;;;;;;;;;;5051490;28;20085;-68
2022/03/17 11:56:05;;;;;;;7.43;1.90;;;;;;;;;;5051555;28;20013;-68
2022/03/17 11:58:39;;;;;;;11.77;2.30;;;;;;;;;;5050846;28;20413;-69
2022/03/17 12:01:12;;;;;;;17.02;3.95;;;;;;;;;;5054432;28;20017;-68
2022/03/17 12:03:38;;;;;;;13.13;2.22;;;;;;;;;;5052643;28;20017;-69
2022/03/17 12:06:07;;;;;;;19.38;2.22;;;;;;;;;;5050989;28;20044;-71
2022/03/17 12:08:41;;;;;;;13.43;2.17;;;;;;;;;;5051287;28;20513;-69
2022/03/17 12:11:13;;;;;;;11.20;2.40;;;;;;;;;;5050941;28;20358;-69
2022/03/17 12:13:39;;;;;;;11.77;2.65;;;;;;;;;;5051059;28;20031;-69
2022/03/17 12:16:05;;;;;;;10.85;2.05;;;;;;;;;;5050867;28;20028;-68
2022/03/17 12:18:50;;;;;;;14.02;2.53;;;;;;;;;;5051115;28;20029;-68
2022/03/17 12:21:15;;;;;;;14.48;2.50;;;;;;;;;;5050472;28;20021;-70
2022/03/17 12:23:47;;;;;;;12.82;3.15;;;;;;;;;;5050975;28;20024;-70
2022/03/17 12:26:12;;;;;;;10.93;3.03;;;;;;;;;;5050895;28;20016;-68
2022/03/17 12:28:44;;;;;;;8.25;3.00;;;;;;;;;;5052644;28;20027;-70
2022/03/17 12:31:10;;;;;;;20.05;3.85;;;;;;;;;;5051359;28;20021;-69
2022/03/17 12:33:42;;;;;;;14.13;3.10;;;;;;;;;;5051821;28;20028;-71
2022/03/17 12:36:08;;;;;;;13.60;3.05;;;;;;;;;;5052971;28;20477;-69
2022/03/17 12:38:34;;;;;;;9.82;2.97;;;;;;;;;;5052077;28;20033;-70
2022/03/17 12:41:00;;;;;;;14.43;4.90;;;;;;;;;;5052350;28;20101;-70
2022/03/17 12:43:25;;;;;;;14.25;4.15;;;;;;;;;;5032437;28;20057;-69
2022/03/17 12:45:51;;;;;;;19.85;4.32;;;;;;;;;;5050818;28;20054;-70
2022/03/17 12:48:17;;;;;;;25.20;4.53;;;;;;;;;;5050223;28;20492;-69
2022/03/17 12:50:44;;;;;;;18.40;4.88;;;;;;;;;;5051634;28;20025;-70
2022/03/17 12:53:09;;;;;;;16.10;5.00;;;;;;;;;;5052932;28;20104;-70
2022/03/17 12:55:35;;;;;;;23.25;5.13;;;;;;;;;;5050400;28;20049;-72
2022/03/17 12:58:04;;;;;;;29.73;6.93;;;;;;;;;;5033480;28;20021;-69
2022/03/17 13:00:30;;;;;;;13.55;5.50;;;;;;;;;;5049965;28;20037;-70
2022/03/17 13:02:56;;;;;;;20.70;5.28;;;;;;;;;;5049479;28;20025;-68
2022/03/17 13:08:07;;;;;;;20.15;7.25;;;;;;;;;;5050162;28;20056;-69
2022/03/17 13:16:02;;;;;;;26.50;7.05;;;;;;;;;;5050109;28;20070;-69
2022/03/17 13:18:38;;;;;;;30.17;8.10;;;;;;;;;;5031166;28;20035;-69
2022/03/17 13:21:04;;;;;;;23.23;7.53;;;;;;;;;;5050006;28;20051;-70
2022/03/17 13:23:36;;;;;;;21.80;7.50;;;;;;;;;;5049751;28;20028;-69
2022/03/17 13:26:01;;;;;;;17.70;5.97;;;;;;;;;;5049633;28;20071;-69
2022/03/17 13:28:26;;;;;;;14.80;6.63;;;;;;;;;;5050253;28;20021;-70
2022/03/17 13:30:52;;;;;;;33.75;9.00;;;;;;;;;;5049641;28;20358;-69
2022/03/17 13:33:25;;;;;;;22.92;9.27;;;;;;;;;;5053833;28;20422;-69
2022/03/17 13:35:50;;;;;;;26.27;10.10;;;;;;;;;;5053773;28;20244;-69
2022/03/17 13:38:18;;;;;;;27.73;10.17;;;;;;;;;;5053611;28;20021;-69
2022/03/17 13:40:51;;;;;;;23.25;10.40;;;;;;;;;;5053598;28;20723;-69
2022/03/17 13:43:18;;;;;;;28.02;10.80;;;;;;;;;;5053860;28;20025;-69
2022/03/17 13:45:44;;;;;;;24.20;11.98;;;;;;;;;;5053595;28;20140;-69
2022/03/17 13:48:11;;;;;;;22.38;10.63;;;;;;;;;;5054208;28;20583;-70
2022/03/17 13:50:40;;;;;;;21.02;9.82;;;;;;;;;;5053989;28;20029;-69
2022/03/17 13:53:06;;;;;;;27.90;9.57;;;;;;;;;;5053295;28;20031;-69
2022/03/17 13:55:31;;;;;;;19.48;8.70;;;;;;;;;;5053313;28;20083;-69
2022/03/17 13:58:08;;;;;;;24.27;8.70;;;;;;;;;;5053205;28;20028;-69
2022/03/17 14:00:33;;;;;;;19.95;8.45;;;;;;;;;;5053215;28;20283;-69
2022/03/17 14:03:12;;;;;;;32.92;8.43;;;;;;;;;;5052821;28;20059;-68
2022/03/17 14:05:56;;;;;;;21.90;6.57;;;;;;;;;;5053246;28;20017;-69
2022/03/17 14:08:21;;;;;;;19.55;7.60;;;;;;;;;;5053266;28;20100;-69
2022/03/17 14:10:46;;;;;;;21.88;8.25;;;;;;;;;;5052726;28;20096;-69
2022/03/17 14:13:12;;;;;;;26.10;7.70;;;;;;;;;;5053405;28;20111;-69
2022/03/17 14:15:37;;;;;;;19.13;6.72;;;;;;;;;;5053143;28;20100;-69
2022/03/17 14:18:02;;;;;;;22.70;8.27;;;;;;;;;;5052694;28;20052;-69
2022/03/17 14:20:27;;;;;;;16.85;8.35;;;;;;;;;;5053028;28;20029;-69
2022/03/17 14:25:37;;;;;;;24.52;9.10;;;;;;;;;;5053158;28;20318;-70
2022/03/17 14:28:02;;;;;;;36.22;11.75;;;;;;;;;;5052792;28;20048;-68
2022/03/17 14:30:27;;;;;;;28.02;10.32;;;;;;;;;;5052908;28;20025;-69
2022/03/17 14:32:52;;;;;;;18.77;9.47;;;;;;;;;;5052843;28;20416;-69
2022/03/17 14:35:17;;;;;;;22.30;10.85;;;;;;;;;;5052837;28;20270;-69
2022/03/17 14:37:43;;;;;;;29.85;11.82;;;;;;;;;;5052683;28;20115;-70
2022/03/17 14:40:08;;;;;;;31.13;13.18;;;;;;;;;;5052893;28;20021;-69
2022/03/17 14:42:34;;;;;;;26.83;11.77;;;;;;;;;;5052093;28;20013;-69
2022/03/17 14:44:59;;;;;;;25.88;10.93;;;;;;;;;;5052227;28;20020;-69
2022/03/17 14:47:24;;;;;;;27.85;11.35;;;;;;;;;;5051488;28;20013;-69
2022/03/17 14:49:50;;;;;;;29.15;11.13;;;;;;;;;;5051985;28;20024;-69